Time;durP1;ratioP1;P1;durP2;ratioP2;P2;SDS_P1;SDS_P2;PMS_P1;PMS_P2;Temp;Humidity;BMP_temperature;BMP_pressure;BME280_temperature;BME280_humidity;BME280_pressure;Samples;Min_cycle;Max_cycle;Signal;HPM_P1;HPM_P2
2022/08/25 00:01:58;;;;;;;6.68;6.05;;;20.70;99.90;;;;;;4996080;28;20060;-80
2022/08/25 00:04:26;;;;;;;5.90;5.40;;;20.80;99.90;;;;;;4998784;28;20037;-79
2022/08/25 00:06:54;;;;;;;7.25;5.93;;;20.80;99.90;;;;;;5027757;28;20564;-79
2022/08/25 00:09:22;;;;;;;6.25;5.65;;;20.80;99.90;;;;;;4997380;28;20045;-78
2022/08/25 00:11:49;;;;;;;6.70;5.78;;;20.80;99.90;;;;;;4992598;28;20049;-78
2022/08/25 00:14:22;;;;;;;6.20;5.60;;;20.80;99.90;;;;;;5005192;28;20045;-77
2022/08/25 00:16:48;;;;;;;6.05;5.38;;;20.80;99.90;;;;;;5011009;28;20434;-78
2022/08/25 00:19:19;;;;;;;8.65;6.07;;;20.80;99.90;;;;;;4992066;28;20156;-79
2022/08/25 00:21:45;;;;;;;8.35;6.20;;;20.80;99.90;;;;;;5006809;28;20045;-79
2022/08/25 00:24:15;;;;;;;7.13;5.85;;;20.70;99.90;;;;;;5015454;28;20056;-79
2022/08/25 00:26:45;;;;;;;6.93;6.10;;;20.70;99.90;;;;;;4994977;28;20042;-79
2022/08/25 00:29:11;;;;;;;6.38;5.75;;;20.70;99.90;;;;;;4996298;28;20107;-79
2022/08/25 00:31:38;;;;;;;7.50;6.15;;;20.60;99.90;;;;;;4979403;28;20045;-79
2022/08/25 00:34:06;;;;;;;7.10;5.53;;;20.60;99.90;;;;;;4983410;28;20060;-78
2022/08/25 00:36:33;;;;;;;6.40;5.57;;;20.50;99.90;;;;;;4998555;28;20727;-78
2022/08/25 00:38:58;;;;;;;6.15;5.65;;;20.30;99.90;;;;;;4989594;28;20037;-79
2022/08/25 00:41:25;;;;;;;6.70;6.10;;;20.30;99.90;;;;;;4987732;28;20111;-79
2022/08/25 00:43:55;;;;;;;5.95;5.38;;;20.30;99.90;;;;;;4979195;28;20033;-79
2022/08/25 00:46:40;;;;;;;8.43;6.20;;;20.30;99.90;;;;;;4999736;28;20033;-78
2022/08/25 00:49:19;;;;;;;7.25;5.90;;;20.30;99.90;;;;;;4996491;28;20091;-78
2022/08/25 00:51:48;;;;;;;7.45;5.03;;;20.30;99.90;;;;;;4992634;28;20042;-79
2022/08/25 00:54:22;;;;;;;6.85;4.68;;;20.30;99.90;;;;;;4997154;28;20041;-78
2022/08/25 00:56:50;;;;;;;7.45;4.90;;;20.40;99.90;;;;;;5001274;28;20041;-79
2022/08/25 00:59:20;;;;;;;5.68;4.50;;;20.40;99.90;;;;;;5003640;28;20069;-78
2022/08/25 01:01:46;;;;;;;6.45;4.20;;;20.40;99.90;;;;;;5004646;28;20056;-80
2022/08/25 01:04:12;;;;;;;5.53;4.00;;;20.40;99.90;;;;;;4983986;28;20581;-80
2022/08/25 01:06:43;;;;;;;4.85;4.35;;;20.40;99.90;;;;;;4983639;28;20041;-80
2022/08/25 01:09:10;;;;;;;6.65;4.35;;;20.40;99.90;;;;;;4980234;28;20045;-79
2022/08/25 01:11:36;;;;;;;5.97;4.57;;;20.40;99.90;;;;;;5007309;28;20049;-79
2022/08/25 01:14:05;;;;;;;6.35;4.35;;;20.50;99.90;;;;;;4976332;28;20041;-79
2022/08/25 01:16:36;;;;;;;6.75;4.57;;;20.50;99.90;;;;;;4993667;28;20038;-79
2022/08/25 01:19:04;;;;;;;6.18;4.13;;;20.50;99.90;;;;;;4994936;28;20050;-79
2022/08/25 01:21:32;;;;;;;7.22;4.35;;;20.50;99.90;;;;;;5008912;28;20045;-80
2022/08/25 01:23:59;;;;;;;8.38;4.75;;;20.50;99.90;;;;;;4994296;28;20088;-80
2022/08/25 01:26:29;;;;;;;5.40;4.90;;;20.50;99.90;;;;;;5013474;28;20047;-79
2022/08/25 01:31:40;;;;;;;6.05;4.30;;;20.50;99.90;;;;;;5025912;28;20044;-79
2022/08/25 01:34:07;;;;;;;6.40;4.80;;;20.40;99.90;;;;;;5007062;28;20033;-79
2022/08/25 01:36:34;;;;;;;8.13;5.35;;;20.40;99.90;;;;;;5009658;28;20029;-79
2022/08/25 01:39:00;;;;;;;5.90;4.55;;;20.40;99.90;;;;;;5032365;28;20037;-79
2022/08/25 01:41:28;;;;;;;6.28;4.80;;;20.40;99.90;;;;;;4994988;28;20095;-79
2022/08/25 01:43:55;;;;;;;5.90;5.20;;;20.30;99.90;;;;;;5005285;28;20060;-79
2022/08/25 01:46:21;;;;;;;6.15;4.82;;;20.30;99.90;;;;;;5006963;28;20472;-79
2022/08/25 01:48:47;;;;;;;5.47;4.97;;;20.30;99.90;;;;;;5011279;28;20351;-78
2022/08/25 01:51:19;;;;;;;5.70;5.00;;;20.20;99.90;;;;;;5007486;28;20096;-78
2022/08/25 01:53:45;;;;;;;5.78;5.20;;;20.10;99.90;;;;;;5012338;28;20052;-78
2022/08/25 01:56:14;;;;;;;6.50;4.95;;;20.10;99.90;;;;;;4995675;28;20450;-78
2022/08/25 01:58:44;;;;;;;5.18;4.60;;;20.00;99.90;;;;;;5011308;28;20045;-78
2022/08/25 02:01:14;;;;;;;6.43;4.60;;;20.00;99.90;;;;;;5015493;28;20033;-79
2022/08/25 02:03:45;;;;;;;5.85;5.20;;;20.00;99.90;;;;;;5013441;28;20489;-80
2022/08/25 02:06:16;;;;;;;5.72;5.15;;;20.00;99.90;;;;;;5019682;28;20044;-81
2022/08/25 02:08:42;;;;;;;6.38;4.97;;;19.90;99.90;;;;;;5017634;28;20041;-81
2022/08/25 02:11:13;;;;;;;7.07;5.00;;;19.90;99.90;;;;;;5018705;28;20037;-81
2022/08/25 02:13:41;;;;;;;6.80;5.00;;;19.80;99.90;;;;;;5013979;28;20083;-81
2022/08/25 02:16:09;;;;;;;5.28;4.63;;;19.80;99.90;;;;;;5033559;28;20086;-79
2022/08/25 02:18:35;;;;;;;5.03;4.32;;;19.80;99.90;;;;;;5014304;28;20049;-78
2022/08/25 02:21:01;;;;;;;6.18;5.18;;;19.70;99.90;;;;;;5017482;28;20385;-80
2022/08/25 02:23:28;;;;;;;5.32;4.70;;;19.70;99.90;;;;;;4989057;28;20061;-79
2022/08/25 02:25:55;;;;;;;7.72;5.13;;;19.60;99.90;;;;;;4995024;28;20101;-79
2022/08/25 02:28:21;;;;;;;5.45;4.90;;;19.50;99.90;;;;;;5011521;28;20477;-79
2022/08/25 02:30:47;;;;;;;5.57;4.82;;;19.50;99.90;;;;;;4999317;28;20074;-79
2022/08/25 02:33:13;;;;;;;5.35;4.78;;;19.40;99.90;;;;;;4993903;28;20036;-80
2022/08/25 02:35:39;;;;;;;6.63;5.03;;;19.40;99.90;;;;;;4993277;28;20346;-79
2022/08/25 02:38:05;;;;;;;5.53;4.82;;;19.30;99.90;;;;;;4994324;28;20036;-79
2022/08/25 02:40:30;;;;;;;5.18;4.68;;;19.30;99.90;;;;;;4968677;28;20335;-79
2022/08/25 02:42:56;;;;;;;5.35;4.70;;;19.30;99.90;;;;;;4982485;28;20145;-80
2022/08/25 02:45:22;;;;;;;13.50;5.93;;;19.30;99.90;;;;;;4965966;28;20063;-79
2022/08/25 02:47:48;;;;;;;11.50;5.07;;;19.30;99.90;;;;;;5014953;28;20036;-80
2022/08/25 02:50:14;;;;;;;7.10;4.97;;;19.30;99.90;;;;;;4967692;28;20042;-79
2022/08/25 02:52:40;;;;;;;6.65;5.20;;;19.20;99.90;;;;;;4982801;28;20069;-79
2022/08/25 02:55:08;;;;;;;6.15;4.93;;;19.20;99.90;;;;;;4997636;28;20042;-80
2022/08/25 02:57:34;;;;;;;5.50;5.00;;;19.20;99.90;;;;;;4998415;28;20482;-79
2022/08/25 03:00:00;;;;;;;5.82;4.80;;;19.10;99.90;;;;;;4976007;28;20037;-79
2022/08/25 03:02:26;;;;;;;5.90;4.75;;;19.10;99.90;;;;;;5012236;28;20107;-79
2022/08/25 03:04:53;;;;;;;7.07;5.13;;;19.10;99.90;;;;;;5012306;28;20466;-79
2022/08/25 03:07:20;;;;;;;5.75;4.70;;;19.10;99.90;;;;;;4995201;28;20075;-78
2022/08/25 03:09:46;;;;;;;5.45;4.95;;;19.10;99.90;;;;;;5006366;28;20056;-79
2022/08/25 03:12:12;;;;;;;8.20;5.00;;;19.00;99.90;;;;;;5008260;28;20037;-79
2022/08/25 03:14:39;;;;;;;6.45;5.20;;;19.00;99.90;;;;;;4990181;28;20076;-79
2022/08/25 03:17:09;;;;;;;7.40;4.88;;;18.90;99.90;;;;;;4993497;28;20037;-79
2022/08/25 03:19:35;;;;;;;5.10;4.60;;;18.90;99.90;;;;;;4979842;28;20037;-79
2022/08/25 03:22:01;;;;;;;5.78;5.28;;;18.90;99.90;;;;;;4987440;28;20378;-79
2022/08/25 03:24:27;;;;;;;7.45;5.45;;;18.90;99.90;;;;;;5001142;28;20083;-79
2022/08/25 03:26:54;;;;;;;5.80;5.07;;;18.90;99.90;;;;;;5015193;28;20164;-79
2022/08/25 03:29:25;;;;;;;7.68;5.20;;;18.80;99.90;;;;;;5018555;28;20033;-79
2022/08/25 03:31:53;;;;;;;5.85;5.35;;;18.80;99.90;;;;;;5026160;28;20037;-79
2022/08/25 03:34:21;;;;;;;5.43;4.93;;;18.80;99.90;;;;;;5034423;28;20037;-78
2022/08/25 03:36:49;;;;;;;5.53;5.00;;;18.80;99.90;;;;;;5006971;28;20037;-79
2022/08/25 03:39:15;;;;;;;6.43;5.82;;;18.70;99.90;;;;;;5014595;28;20374;-78
2022/08/25 03:41:42;;;;;;;8.02;5.40;;;18.70;99.90;;;;;;5030568;28;20040;-78
2022/08/25 03:44:08;;;;;;;5.82;5.28;;;18.70;99.90;;;;;;5030634;28;20504;-78
2022/08/25 03:46:40;;;;;;;8.20;5.50;;;18.70;99.90;;;;;;5015766;28;20041;-78
2022/08/25 03:49:12;;;;;;;6.13;5.53;;;18.70;99.90;;;;;;5011056;28;20764;-78
2022/08/25 03:51:50;;;;;;;6.88;5.47;;;18.70;99.90;;;;;;5030522;28;20068;-78
2022/08/25 03:54:20;;;;;;;6.07;5.50;;;18.70;99.90;;;;;;5013740;28;20045;-77
2022/08/25 03:56:46;;;;;;;8.25;5.65;;;18.60;99.90;;;;;;5031214;28;20037;-77
2022/08/25 03:59:12;;;;;;;6.65;5.20;;;18.60;99.90;;;;;;4980284;28;20116;-79
2022/08/25 04:01:40;;;;;;;6.03;5.43;;;18.60;99.90;;;;;;5032243;28;20086;-78
2022/08/25 04:04:08;;;;;;;6.07;5.53;;;18.60;99.90;;;;;;5023699;28;20041;-78
2022/08/25 04:06:34;;;;;;;6.72;5.90;;;18.60;99.90;;;;;;5010460;28;20534;-78
2022/08/25 04:08:59;;;;;;;5.88;5.28;;;18.60;99.90;;;;;;5005829;28;20041;-78
2022/08/25 04:11:26;;;;;;;8.43;5.22;;;18.50;99.90;;;;;;5021020;28;20124;-78
2022/08/25 04:13:56;;;;;;;6.63;5.63;;;18.50;99.90;;;;;;5006708;28;20052;-78
2022/08/25 04:16:24;;;;;;;6.35;5.57;;;18.50;99.90;;;;;;5037222;28;20037;-78
2022/08/25 04:18:51;;;;;;;6.85;5.30;;;18.40;99.90;;;;;;5010644;28;20038;-77
2022/08/25 04:21:19;;;;;;;8.25;5.78;;;18.50;99.90;;;;;;5007019;28;20076;-76
2022/08/25 04:23:47;;;;;;;5.93;5.32;;;18.40;99.90;;;;;;5005147;28;20452;-77
2022/08/25 04:26:27;;;;;;;6.03;5.43;;;18.40;99.90;;;;;;4991424;28;20436;-78
2022/08/25 04:28:56;;;;;;;7.07;5.38;;;18.40;99.90;;;;;;5024572;28;20105;-78
2022/08/25 04:31:22;;;;;;;7.20;5.50;;;18.30;99.90;;;;;;4989678;28;20063;-78
2022/08/25 04:33:48;;;;;;;5.90;5.18;;;18.30;99.90;;;;;;4989211;28;20116;-78
2022/08/25 04:36:16;;;;;;;6.50;5.28;;;18.30;99.90;;;;;;5025993;28;20685;-78
2022/08/25 04:38:43;;;;;;;7.00;6.30;;;18.30;99.90;;;;;;5019305;28;20032;-78
2022/08/25 04:41:10;;;;;;;6.20;5.32;;;18.30;99.90;;;;;;4996427;28;20076;-77
2022/08/25 04:43:38;;;;;;;8.00;5.75;;;18.30;99.90;;;;;;5008493;28;20540;-78
2022/08/25 04:46:09;;;;;;;8.18;6.22;;;18.30;99.90;;;;;;5015279;28;20037;-79
2022/08/25 04:48:36;;;;;;;8.02;5.93;;;18.30;99.90;;;;;;5031282;28;20037;-79
2022/08/25 04:51:17;;;;;;;7.43;6.03;;;18.30;99.90;;;;;;5008434;28;20128;-78
2022/08/25 04:53:43;;;;;;;8.10;5.60;;;18.30;99.90;;;;;;5025897;28;20123;-78
2022/08/25 04:56:12;;;;;;;6.90;6.00;;;18.30;99.90;;;;;;5014876;28;20115;-78
2022/08/25 04:58:39;;;;;;;6.72;6.00;;;18.30;99.90;;;;;;5026913;28;20111;-79
2022/08/25 05:01:07;;;;;;;8.07;6.10;;;18.30;99.90;;;;;;5030641;28;20138;-78
2022/08/25 05:03:33;;;;;;;8.40;6.63;;;18.30;99.90;;;;;;5031810;28;20486;-78
2022/08/25 05:06:00;;;;;;;9.27;6.10;;;18.30;99.90;;;;;;5013865;28;20041;-79
2022/08/25 05:08:26;;;;;;;7.90;6.13;;;18.30;99.90;;;;;;5027478;28;20363;-80
2022/08/25 05:10:55;;;;;;;7.82;6.00;;;18.40;99.90;;;;;;5002445;28;20393;-78
2022/08/25 05:13:22;;;;;;;9.43;6.47;;;18.30;99.90;;;;;;5010398;28;20032;-79
2022/08/25 05:15:56;;;;;;;7.53;6.10;;;18.30;99.90;;;;;;5016064;28;20072;-80
2022/08/25 05:18:24;;;;;;;8.30;6.57;;;18.40;99.90;;;;;;5017386;28;20063;-80
2022/08/25 05:20:54;;;;;;;9.70;6.75;;;18.40;99.90;;;;;;5016670;28;20837;-79
2022/08/25 05:23:22;;;;;;;7.22;6.20;;;18.80;99.90;;;;;;4992524;28;20045;-81
2022/08/25 05:25:49;;;;;;;8.68;6.80;;;18.40;99.90;;;;;;5011606;28;20095;-81
2022/08/25 05:28:15;;;;;;;7.78;6.63;;;18.50;99.90;;;;;;5034848;28;20060;-80
2022/08/25 05:30:42;;;;;;;9.85;6.80;;;18.50;99.90;;;;;;5029631;28;20431;-78
2022/08/25 05:33:09;;;;;;;14.40;7.07;;;18.50;99.90;;;;;;5046368;28;20037;-80
2022/08/25 05:35:35;;;;;;;9.25;7.20;;;18.60;99.90;;;;;;5031473;28;20043;-80
2022/08/25 05:38:02;;;;;;;7.40;6.55;;;18.60;99.90;;;;;;5009662;28;20037;-78
2022/08/25 05:40:29;;;;;;;6.93;6.22;;;18.70;99.90;;;;;;5019431;28;20037;-80
2022/08/25 05:42:55;;;;;;;9.43;6.20;;;18.80;99.90;;;;;;5026436;28;20416;-78
2022/08/25 05:45:21;;;;;;;7.22;5.95;;;18.80;99.90;;;;;;5034899;28;20044;-80
2022/08/25 05:47:49;;;;;;;8.90;6.90;;;18.80;99.90;;;;;;5030453;28;20040;-79
2022/08/25 05:50:15;;;;;;;9.82;7.03;;;19.10;99.90;;;;;;5044086;28;20021;-79
2022/08/25 05:52:41;;;;;;;7.00;6.15;;;19.00;99.90;;;;;;5044927;28;20045;-81
2022/08/25 05:55:07;;;;;;;11.10;6.60;;;19.10;99.90;;;;;;5022828;28;20117;-80
2022/08/25 05:57:33;;;;;;;11.32;6.70;;;19.10;99.90;;;;;;5008799;28;20068;-79
2022/08/25 06:00:00;;;;;;;9.40;6.63;;;19.20;99.90;;;;;;5005151;28;20076;-78
2022/08/25 06:02:43;;;;;;;8.80;6.57;;;19.30;99.90;;;;;;5041387;28;20098;-78
2022/08/25 06:05:20;;;;;;;11.55;6.85;;;19.40;99.90;;;;;;5005333;28;20049;-78
2022/08/25 06:07:47;;;;;;;9.95;6.78;;;19.40;99.90;;;;;;5020450;28;20045;-79
2022/08/25 06:10:13;;;;;;;8.93;7.10;;;19.50;99.90;;;;;;5017358;28;20446;-76
2022/08/25 06:12:43;;;;;;;7.93;6.78;;;19.50;99.90;;;;;;5027379;28;20069;-77
2022/08/25 06:15:13;;;;;;;9.88;7.45;;;19.60;99.90;;;;;;5036419;28;20122;-76
2022/08/25 06:17:41;;;;;;;12.80;7.20;;;19.60;99.90;;;;;;5037568;28;20068;-76
2022/08/25 06:20:23;;;;;;;9.82;7.20;;;19.70;99.90;;;;;;5058322;28;20098;-76
2022/08/25 06:22:49;;;;;;;10.13;6.78;;;19.80;99.90;;;;;;5020136;28;20057;-80
2022/08/25 06:25:18;;;;;;;9.15;6.68;;;19.80;99.90;;;;;;5039053;28;20666;-79
2022/08/25 06:28:07;;;;;;;12.77;6.93;;;19.90;99.90;;;;;;5029995;28;20044;-80
2022/08/25 06:30:39;;;;;;;9.13;6.80;;;20.00;99.90;;;;;;5008724;28;20116;-80
2022/08/25 06:33:04;;;;;;;9.68;7.30;;;20.10;99.90;;;;;;5001397;28;20052;-78
2022/08/25 06:35:31;;;;;;;8.88;6.85;;;20.20;99.90;;;;;;5002850;28;20033;-78
2022/08/25 06:37:56;;;;;;;9.85;7.00;;;20.30;99.90;;;;;;5030365;28;20167;-77
2022/08/25 06:40:23;;;;;;;10.20;7.45;;;20.30;99.90;;;;;;5019916;28;20112;-78
2022/08/25 06:42:49;;;;;;;11.25;7.18;;;20.40;99.90;;;;;;5020018;28;20072;-77
2022/08/25 06:45:22;;;;;;;10.60;7.68;;;20.50;99.90;;;;;;5024253;28;20129;-80
2022/08/25 06:47:48;;;;;;;7.93;7.13;;;20.70;99.90;;;;;;5032817;28;20041;-80
2022/08/25 06:50:13;;;;;;;10.95;7.88;;;20.80;99.90;;;;;;5007846;28;20049;-81
2022/08/25 06:52:42;;;;;;;9.63;7.78;;;20.90;99.90;;;;;;5033271;28;20131;-80
2022/08/25 06:55:09;;;;;;;12.55;6.95;;;21.00;99.90;;;;;;5014263;28;20516;-80
2022/08/25 06:57:34;;;;;;;9.52;6.90;;;21.10;99.90;;;;;;5018064;28;20049;-79
2022/08/25 07:00:06;;;;;;;9.45;6.40;;;21.20;99.90;;;;;;4984780;28;20053;-80
2022/08/25 07:02:35;;;;;;;7.55;6.75;;;21.20;99.90;;;;;;5026588;28;20394;-80
2022/08/25 07:05:00;;;;;;;8.30;6.57;;;21.40;99.90;;;;;;4999988;28;20043;-76
2022/08/25 07:07:26;;;;;;;10.52;7.15;;;21.40;99.90;;;;;;5019195;28;20506;-77
2022/08/25 07:09:52;;;;;;;9.77;6.60;;;21.50;99.90;;;;;;5003489;28;20533;-79
2022/08/25 07:12:17;;;;;;;8.82;6.93;;;21.50;99.90;;;;;;5018879;28;20127;-74
2022/08/25 07:14:43;;;;;;;10.45;6.90;;;21.70;99.90;;;;;;5035275;28;20036;-75
2022/08/25 07:17:09;;;;;;;8.25;6.07;;;21.80;99.90;;;;;;5035088;28;20044;-75
2022/08/25 07:19:34;;;;;;;7.40;6.35;;;21.90;99.90;;;;;;5018749;28;20045;-75
2022/08/25 07:22:00;;;;;;;8.05;6.38;;;22.00;99.90;;;;;;5001941;28;20033;-75
2022/08/25 07:24:26;;;;;;;7.47;6.00;;;22.10;99.90;;;;;;5013466;28;20111;-74
2022/08/25 07:26:52;;;;;;;8.65;6.35;;;22.20;99.90;;;;;;4999191;28;20487;-73
2022/08/25 07:29:24;;;;;;;9.00;6.38;;;22.20;99.90;;;;;;5016942;28;20037;-74
2022/08/25 07:31:50;;;;;;;7.68;6.43;;;22.30;99.90;;;;;;5017474;28;20052;-75
2022/08/25 07:37:03;;;;;;;;;;;22.50;99.90;;;;;;5033332;28;20107;-75
2022/08/25 07:39:29;;;;;;;8.18;5.80;;;22.50;99.90;;;;;;5033655;28;20007;-75
2022/08/25 07:41:56;;;;;;;7.40;5.90;;;22.50;99.90;;;;;;5033026;28;20037;-74
2022/08/25 07:44:22;;;;;;;8.75;6.50;;;22.60;99.90;;;;;;5032139;28;20124;-74
2022/08/25 07:46:49;;;;;;;6.95;6.20;;;22.70;99.90;;;;;;5031878;28;20049;-74
2022/08/25 07:49:15;;;;;;;8.65;6.22;;;22.80;99.90;;;;;;5016655;28;20181;-75
2022/08/25 07:51:41;;;;;;;11.50;6.00;;;22.90;99.90;;;;;;5016929;28;20047;-74
2022/08/25 07:54:07;;;;;;;6.72;5.43;;;23.10;99.90;;;;;;5000458;28;20151;-75
2022/08/25 07:56:32;;;;;;;8.00;5.93;;;23.20;99.90;;;;;;5033528;28;20044;-74
2022/08/25 07:58:58;;;;;;;6.20;4.80;;;23.30;99.90;;;;;;5032517;28;20512;-75
2022/08/25 08:01:24;;;;;;;7.43;5.45;;;23.30;99.90;;;;;;5016465;28;20354;-74
2022/08/25 08:03:51;;;;;;;7.78;5.30;;;23.40;99.90;;;;;;5017077;28;20045;-77
2022/08/25 08:06:18;;;;;;;7.68;5.38;;;23.50;99.90;;;;;;5016555;28;20045;-75
2022/08/25 08:08:48;;;;;;;6.70;5.60;;;23.60;99.90;;;;;;5033247;28;20045;-75
2022/08/25 08:11:31;;;;;;;8.90;5.43;;;23.70;99.90;;;;;;5032124;28;20041;-75
2022/08/25 08:13:58;;;;;;;7.60;4.95;;;23.70;99.90;;;;;;5032373;28;20064;-75
2022/08/25 08:16:26;;;;;;;7.03;5.07;;;23.90;99.90;;;;;;5033175;28;20033;-74
2022/08/25 08:18:52;;;;;;;8.02;5.57;;;23.90;99.90;;;;;;5016577;28;20052;-75
2022/08/25 08:21:21;;;;;;;8.18;5.25;;;23.90;99.90;;;;;;5032716;28;20432;-76
2022/08/25 08:23:48;;;;;;;5.95;5.32;;;24.00;99.90;;;;;;5033172;28;20071;-77
2022/08/25 08:26:14;;;;;;;6.20;5.32;;;24.10;99.90;;;;;;5032700;28;20078;-76
2022/08/25 08:28:40;;;;;;;6.75;4.80;;;24.20;99.90;;;;;;5016722;28;20596;-77
2022/08/25 08:31:06;;;;;;;7.63;4.88;;;24.30;99.90;;;;;;5032538;28;20060;-77
2022/08/25 08:33:33;;;;;;;5.75;5.15;;;24.40;99.90;;;;;;5017321;28;20094;-79
2022/08/25 08:36:06;;;;;;;5.53;4.90;;;24.40;99.90;;;;;;5033808;28;20043;-79
2022/08/25 08:38:33;;;;;;;6.20;5.37;;;24.40;99.90;;;;;;5034537;28;20033;-79
2022/08/25 08:44:54;;;;;;;5.88;4.47;;;24.70;99.90;;;;;;5053902;28;20044;-80
2022/08/25 08:48:04;;;;;;;6.25;4.28;;;24.70;99.90;;;;;;5036800;28;20053;-80
2022/08/25 08:51:23;;;;;;;10.13;4.72;;;24.90;99.90;;;;;;5009532;28;20037;-79
2022/08/25 08:54:05;;;;;;;5.60;4.43;;;25.00;99.90;;;;;;5011206;28;20476;-79
2022/08/25 08:56:37;;;;;;;6.78;4.60;;;25.10;99.90;;;;;;5037125;28;20044;-79
2022/08/25 08:59:09;;;;;;;7.93;4.90;;;25.30;99.90;;;;;;5052500;28;20051;-79
2022/08/25 09:02:00;;;;;;;5.82;4.57;;;25.40;99.90;;;;;;5053142;28;20388;-78
2022/08/25 09:04:34;;;;;;;6.15;4.75;;;25.50;99.90;;;;;;5036426;28;20040;-79
2022/08/25 09:07:07;;;;;;;5.22;4.40;;;25.50;99.90;;;;;;5036479;28;20032;-79
2022/08/25 09:09:34;;;;;;;6.28;4.57;;;25.60;99.90;;;;;;5036569;28;20127;-79
2022/08/25 09:12:12;;;;;;;4.90;4.30;;;25.70;99.90;;;;;;5035653;28;20059;-79
2022/08/25 09:14:53;;;;;;;5.45;4.45;;;25.80;99.90;;;;;;5037262;28;20047;-79
2022/08/25 09:17:55;;;;;;;5.57;4.30;;;25.90;99.90;;;;;;5036090;28;20488;-79
2022/08/25 09:20:57;;;;;;;7.20;4.18;;;25.90;99.90;;;;;;5024294;28;20052;-79
2022/08/25 09:23:25;;;;;;;5.43;4.30;;;26.20;99.90;;;;;;5016189;28;20061;-80
2022/08/25 09:25:57;;;;;;;5.28;4.30;;;26.40;99.90;;;;;;5016798;28;20386;-79
2022/08/25 09:28:38;;;;;;;7.70;4.13;;;26.50;99.90;;;;;;5016648;28;20045;-79
2022/08/25 09:31:25;;;;;;;4.95;4.18;;;26.60;99.90;;;;;;5015561;28;20044;-79
2022/08/25 09:33:59;;;;;;;7.55;4.30;;;26.60;99.90;;;;;;5033194;28;20140;-79
2022/08/25 09:36:25;;;;;;;4.57;3.58;;;26.70;99.90;;;;;;5000050;28;20089;-80
2022/08/25 09:38:51;;;;;;;5.72;4.13;;;27.00;99.90;;;;;;5016412;28;20041;-79
2022/08/25 09:41:55;;;;;;;6.18;3.78;;;27.30;99.90;;;;;;5016243;28;20041;-79
2022/08/25 09:44:31;;;;;;;5.25;3.92;;;27.50;99.90;;;;;;5016237;28;20041;-80
2022/08/25 09:47:20;;;;;;;5.38;3.90;;;27.80;99.90;;;;;;5016770;28;20381;-81
2022/08/25 09:49:50;;;;;;;3.50;3.15;;;28.20;99.90;;;;;;5032394;28;20041;-66
2022/08/25 09:52:37;;;;;;;5.63;3.30;;;28.50;99.90;;;;;;5030594;28;20045;-80
2022/08/25 09:55:12;;;;;;;4.45;3.15;;;28.20;85.70;;;;;;5014296;28;20124;-77
2022/08/25 09:57:49;;;;;;;4.45;3.72;;;28.60;87.40;;;;;;5015054;28;20041;-77
2022/08/25 10:00:21;;;;;;;6.55;3.60;;;28.70;71.20;;;;;;5014175;28;20730;-76
2022/08/25 10:03:14;;;;;;;6.22;3.53;;;29.00;66.00;;;;;;5015135;28;20495;-77
2022/08/25 10:06:00;;;;;;;3.55;3.10;;;29.10;36.00;;;;;;5031538;28;20052;-77
2022/08/25 10:08:44;;;;;;;4.43;3.03;;;29.10;17.10;;;;;;5014914;28;20385;-76
2022/08/25 10:11:14;;;;;;;;;;;29.30;1.00;;;;;;5014961;28;20132;-77
2022/08/25 10:13:47;;;;;;;4.07;2.60;;;29.20;1.00;;;;;;5031372;28;19920;-75
2022/08/25 10:16:31;;;;;;;4.15;3.10;;;29.30;1.00;;;;;;5030875;28;20437;-77
2022/08/25 10:19:07;;;;;;;3.42;2.90;;;29.40;1.00;;;;;;5009548;28;20041;-76
2022/08/25 10:21:35;;;;;;;4.90;3.00;;;29.40;1.50;;;;;;4995674;28;20041;-75
2022/08/25 10:24:01;;;;;;;6.22;3.50;;;29.40;1.00;;;;;;5014983;28;20065;-76
2022/08/25 10:26:40;;;;;;;4.75;3.05;;;29.40;1.00;;;;;;4998728;28;20056;-75
2022/08/25 10:29:35;;;;;;;3.30;2.60;;;29.30;1.00;;;;;;4998627;28;20413;-76
2022/08/25 10:32:11;;;;;;;5.15;2.90;;;29.30;1.00;;;;;;4983950;28;20068;-78
2022/08/25 10:34:42;;;;;;;4.15;2.60;;;29.30;1.00;;;;;;4998883;28;20048;-75
2022/08/25 10:37:32;;;;;;;3.40;2.78;;;29.20;1.00;;;;;;5014498;28;20041;-78
2022/08/25 10:40:37;;;;;;;4.00;3.13;;;29.30;1.00;;;;;;4998264;28;20041;-77
2022/08/25 10:43:10;;;;;;;4.38;2.90;;;29.20;1.00;;;;;;4998243;28;20045;-75
2022/08/25 10:45:42;;;;;;;3.87;2.80;;;29.50;1.00;;;;;;4998570;28;20049;-77
2022/08/25 10:48:26;;;;;;;3.58;2.97;;;29.60;1.00;;;;;;4997993;28;20049;-77
2022/08/25 10:51:02;;;;;;;4.72;3.05;;;29.70;1.00;;;;;;5020725;28;20095;-76
2022/08/25 10:53:43;;;;;;;4.28;2.80;;;29.80;1.00;;;;;;5031297;28;20504;-79
2022/08/25 10:56:26;;;;;;;3.33;3.03;;;30.00;1.00;;;;;;5014292;28;20041;-77
2022/08/25 10:59:08;;;;;;;3.42;3.13;;;29.70;1.00;;;;;;5017923;28;20044;-80
2022/08/25 11:01:52;;;;;;;3.80;3.05;;;29.70;1.00;;;;;;5035748;28;20072;-79
2022/08/25 11:04:35;;;;;;;4.78;3.10;;;29.60;1.00;;;;;;5018109;28;20040;-78
2022/08/25 11:07:13;;;;;;;4.85;2.88;;;29.50;1.00;;;;;;5017647;28;20045;-81
2022/08/25 11:09:43;;;;;;;3.50;2.92;;;29.70;1.00;;;;;;5018576;28;20083;-76
2022/08/25 11:12:28;;;;;;;4.43;3.00;;;29.90;1.00;;;;;;5016657;28;20505;-76
2022/08/25 11:15:08;;;;;;;3.72;3.30;;;30.00;1.00;;;;;;5034384;28;20131;-78
2022/08/25 11:17:47;;;;;;;4.10;3.40;;;29.80;1.00;;;;;;5017989;28;20037;-80
2022/08/25 11:20:20;;;;;;;4.00;3.45;;;29.80;1.00;;;;;;5034010;28;20518;-77
2022/08/25 11:22:50;;;;;;;;;;;30.10;1.00;;;;;;5018429;28;20118;-79
2022/08/25 11:25:33;;;;;;;4.80;3.33;;;29.90;1.00;;;;;;5016955;28;19978;-77
2022/08/25 11:28:29;;;;;;;2.97;2.67;;;30.00;1.00;;;;;;5017546;28;20491;-76
2022/08/25 11:30:58;;;;;;;3.38;3.00;;;30.00;1.00;;;;;;5017596;28;20049;-79
2022/08/25 11:33:26;;;;;;;7.00;3.67;;;30.00;1.00;;;;;;5033342;28;20041;-79
2022/08/25 11:36:01;;;;;;;3.50;3.20;;;30.10;1.00;;;;;;5017917;28;20084;-77
2022/08/25 11:38:36;;;;;;;4.78;3.40;;;30.10;1.00;;;;;;5017439;28;20041;-80
2022/08/25 11:41:14;;;;;;;5.65;3.28;;;30.20;1.00;;;;;;5017375;28;20381;-80
2022/08/25 11:44:11;;;;;;;4.20;3.30;;;30.00;1.00;;;;;;5017553;28;20090;-78
2022/08/25 11:47:12;;;;;;;4.45;3.30;;;30.50;1.00;;;;;;5002254;28;20044;-81
2022/08/25 11:49:59;;;;;;;4.93;3.53;;;30.40;1.00;;;;;;5030438;28;20061;-82
2022/08/25 11:52:52;;;;;;;5.78;3.42;;;30.30;1.00;;;;;;5018246;28;20052;-82
2022/08/25 11:55:36;;;;;;;4.70;3.33;;;30.30;1.00;;;;;;5018916;28;20489;-81
2022/08/25 11:58:20;;;;;;;3.35;3.03;;;30.30;1.00;;;;;;5035211;28;20426;-83
2022/08/25 12:00:49;;;;;;;9.80;2.92;;;30.70;1.00;;;;;;5018390;28;20767;-81
2022/08/25 12:03:30;;;;;;;3.40;3.03;;;30.40;1.00;;;;;;5000398;28;20073;-78
2022/08/25 12:06:20;;;;;;;4.88;3.08;;;30.40;99.90;;;;;;5033309;28;20059;-77
2022/08/25 12:09:02;;;;;;;3.33;3.03;;;30.20;99.90;;;;;;5033217;28;20041;-78
2022/08/25 12:11:37;;;;;;;3.03;2.70;;;30.30;99.90;;;;;;5015802;28;20490;-79
2022/08/25 12:14:21;;;;;;;3.50;3.00;;;30.50;99.90;;;;;;5032542;28;20485;-78
2022/08/25 12:16:50;;;;;;;3.40;2.97;;;30.40;99.90;;;;;;5032822;28;20517;-77
2022/08/25 12:19:33;;;;;;;5.53;3.00;;;30.30;99.90;;;;;;5024327;28;20045;-76
2022/08/25 12:22:02;;;;;;;;;;;30.40;99.90;;;;;;4996926;28;20043;-78
2022/08/25 12:24:43;;;;;;;3.58;3.13;;;30.20;99.90;;;;;;5012205;28;19956;-77
2022/08/25 12:27:23;;;;;;;6.97;2.95;;;30.30;99.90;;;;;;4995914;28;20049;-76
2022/08/25 12:29:57;;;;;;;4.07;3.00;;;30.10;99.90;;;;;;5012934;28;20064;-76
2022/08/25 12:32:47;;;;;;;3.40;2.90;;;30.10;99.90;;;;;;4995999;28;20045;-76
2022/08/25 12:35:25;;;;;;;5.53;2.97;;;30.40;99.90;;;;;;5011983;28;20052;-77
2022/08/25 12:37:59;;;;;;;4.65;3.00;;;30.30;99.90;;;;;;5013028;28;20038;-79
2022/08/25 12:40:36;;;;;;;5.85;3.50;;;30.20;99.90;;;;;;5013193;28;20174;-78
2022/08/25 12:43:10;;;;;;;3.38;3.08;;;30.10;99.90;;;;;;5032331;28;20128;-78
2022/08/25 12:45:36;;;;;;;4.80;2.80;;;30.40;99.90;;;;;;5015242;28;20094;-77
2022/08/25 12:48:24;;;;;;;6.75;2.95;;;30.50;99.90;;;;;;5032336;28;20056;-78
2022/08/25 12:51:01;;;;;;;4.38;3.00;;;30.40;99.90;;;;;;5032280;28;20049;-77
2022/08/25 12:53:39;;;;;;;4.32;2.97;;;30.30;99.90;;;;;;5015686;28;20075;-77
2022/08/25 12:56:07;;;;;;;4.95;2.95;;;30.70;99.90;;;;;;5032211;28;20486;-78
2022/08/25 12:59:11;;;;;;;2.88;2.60;;;30.60;99.90;;;;;;5032230;28;20116;-77
2022/08/25 13:02:13;;;;;;;3.15;2.85;;;30.80;99.90;;;;;;5015206;28;20053;-78
2022/08/25 13:05:10;;;;;;;3.70;2.90;;;30.60;99.90;;;;;;5032185;28;20443;-77
2022/08/25 13:08:14;;;;;;;6.35;3.83;;;30.80;99.90;;;;;;5015172;28;20052;-77
2022/08/25 13:10:45;;;;;;;4.53;2.78;;;30.80;99.90;;;;;;5032176;28;20048;-77
2022/08/25 13:13:29;;;;;;;4.13;3.22;;;30.80;99.90;;;;;;5031873;28;20128;-78
2022/08/25 13:16:00;;;;;;;3.35;2.90;;;30.90;99.90;;;;;;5015607;28;20037;-77
2022/08/25 13:18:35;;;;;;;6.35;3.20;;;31.20;99.90;;;;;;5032124;28;20071;-77
2022/08/25 13:21:27;;;;;;;3.80;2.80;;;31.30;99.90;;;;;;5031286;28;20041;-77
2022/08/25 13:23:54;;;;;;;3.78;2.70;;;31.40;99.90;;;;;;5032036;28;20056;-78